sensor_id;sensor_type;location;lat;lon;timestamp;P1;durP1;ratioP1;P2;durP2;ratioP2
19113;SDS011;9689;51.052;13.772;2023-09-18T00:02:20;7.28;;;4.13;;
19113;SDS011;9689;51.052;13.772;2023-09-18T00:07:22;5.20;;;3.55;;
19113;SDS011;9689;51.052;13.772;2023-09-18T00:12:23;6.20;;;3.97;;
19113;SDS011;9689;51.052;13.772;2023-09-18T00:17:24;6.07;;;4.13;;
19113;SDS011;9689;51.052;13.772;2023-09-18T00:22:26;5.93;;;3.65;;
19113;SDS011;9689;51.052;13.772;2023-09-18T00:27:27;6.05;;;4.20;;
19113;SDS011;9689;51.052;13.772;2023-09-18T00:32:28;6.80;;;4.10;;
19113;SDS011;9689;51.052;13.772;2023-09-18T00:37:31;6.28;;;4.28;;
19113;SDS011;9689;51.052;13.772;2023-09-18T00:42:32;6.35;;;4.60;;
19113;SDS011;9689;51.052;13.772;2023-09-18T00:47:33;7.20;;;3.97;;
19113;SDS011;9689;51.052;13.772;2023-09-18T00:52:37;7.60;;;4.38;;
19113;SDS011;9689;51.052;13.772;2023-09-18T00:57:39;11.45;;;4.00;;
19113;SDS011;9689;51.052;13.772;2023-09-18T01:02:40;5.82;;;4.05;;
19113;SDS011;9689;51.052;13.772;2023-09-18T01:07:44;6.93;;;3.90;;
19113;SDS011;9689;51.052;13.772;2023-09-18T01:12:46;7.38;;;4.22;;
19113;SDS011;9689;51.052;13.772;2023-09-18T01:17:50;6.53;;;4.47;;
19113;SDS011;9689;51.052;13.772;2023-09-18T01:22:53;6.50;;;4.57;;
19113;SDS011;9689;51.052;13.772;2023-09-18T01:27:53;7.35;;;4.00;;
19113;SDS011;9689;51.052;13.772;2023-09-18T01:32:54;6.53;;;4.00;;
19113;SDS011;9689;51.052;13.772;2023-09-18T01:37:58;6.78;;;4.55;;
19113;SDS011;9689;51.052;13.772;2023-09-18T01:43:00;5.63;;;4.68;;
19113;SDS011;9689;51.052;13.772;2023-09-18T01:48:01;5.32;;;4.15;;
19113;SDS011;9689;51.052;13.772;2023-09-18T01:53:06;5.97;;;4.43;;
19113;SDS011;9689;51.052;13.772;2023-09-18T01:58:08;6.03;;;4.40;;
19113;SDS011;9689;51.052;13.772;2023-09-18T02:03:09;7.30;;;4.35;;
19113;SDS011;9689;51.052;13.772;2023-09-18T02:08:31;4.55;;;3.90;;
19113;SDS011;9689;51.052;13.772;2023-09-18T02:13:32;5.68;;;4.38;;
19113;SDS011;9689;51.052;13.772;2023-09-18T02:18:33;8.63;;;4.75;;
19113;SDS011;9689;51.052;13.772;2023-09-18T02:23:37;5.78;;;4.10;;
19113;SDS011;9689;51.052;13.772;2023-09-18T02:28:37;5.57;;;4.40;;
19113;SDS011;9689;51.052;13.772;2023-09-18T02:33:38;8.70;;;4.75;;
19113;SDS011;9689;51.052;13.772;2023-09-18T02:38:41;7.97;;;4.82;;
19113;SDS011;9689;51.052;13.772;2023-09-18T02:43:42;9.70;;;4.47;;
19113;SDS011;9689;51.052;13.772;2023-09-18T02:48:42;6.22;;;5.13;;
19113;SDS011;9689;51.052;13.772;2023-09-18T02:53:45;6.25;;;4.55;;
19113;SDS011;9689;51.052;13.772;2023-09-18T02:58:46;6.28;;;4.60;;
19113;SDS011;9689;51.052;13.772;2023-09-18T03:03:47;5.78;;;4.60;;
19113;SDS011;9689;51.052;13.772;2023-09-18T03:08:49;8.10;;;4.85;;
19113;SDS011;9689;51.052;13.772;2023-09-18T03:13:51;5.45;;;4.07;;
19113;SDS011;9689;51.052;13.772;2023-09-18T03:18:51;7.90;;;4.32;;
19113;SDS011;9689;51.052;13.772;2023-09-18T03:23:55;6.03;;;4.97;;
19113;SDS011;9689;51.052;13.772;2023-09-18T03:28:57;6.22;;;5.00;;
19113;SDS011;9689;51.052;13.772;2023-09-18T03:33:58;6.55;;;4.93;;
19113;SDS011;9689;51.052;13.772;2023-09-18T03:39:01;5.88;;;4.80;;
19113;SDS011;9689;51.052;13.772;2023-09-18T03:44:04;6.68;;;4.75;;
19113;SDS011;9689;51.052;13.772;2023-09-18T03:49:05;7.43;;;4.95;;
19113;SDS011;9689;51.052;13.772;2023-09-18T03:54:11;6.35;;;4.88;;
19113;SDS011;9689;51.052;13.772;2023-09-18T03:59:12;7.72;;;4.95;;
19113;SDS011;9689;51.052;13.772;2023-09-18T04:04:12;7.75;;;5.15;;
19113;SDS011;9689;51.052;13.772;2023-09-18T04:09:15;8.43;;;4.63;;
19113;SDS011;9689;51.052;13.772;2023-09-18T04:14:17;7.57;;;4.97;;
19113;SDS011;9689;51.052;13.772;2023-09-18T04:19:18;8.48;;;4.80;;
19113;SDS011;9689;51.052;13.772;2023-09-18T04:24:20;7.00;;;5.57;;
19113;SDS011;9689;51.052;13.772;2023-09-18T04:29:21;6.15;;;4.80;;
19113;SDS011;9689;51.052;13.772;2023-09-18T04:34:22;6.53;;;5.03;;
19113;SDS011;9689;51.052;13.772;2023-09-18T04:39:25;6.65;;;5.00;;
19113;SDS011;9689;51.052;13.772;2023-09-18T04:44:26;6.70;;;4.82;;
19113;SDS011;9689;51.052;13.772;2023-09-18T04:49:27;9.48;;;5.53;;
19113;SDS011;9689;51.052;13.772;2023-09-18T04:54:30;10.02;;;5.85;;
19113;SDS011;9689;51.052;13.772;2023-09-18T04:59:31;6.45;;;5.07;;
19113;SDS011;9689;51.052;13.772;2023-09-18T05:04:32;8.10;;;5.53;;
19113;SDS011;9689;51.052;13.772;2023-09-18T05:09:34;8.82;;;5.60;;
19113;SDS011;9689;51.052;13.772;2023-09-18T05:14:35;7.85;;;5.32;;
19113;SDS011;9689;51.052;13.772;2023-09-18T05:19:35;10.63;;;5.88;;
19113;SDS011;9689;51.052;13.772;2023-09-18T05:24:38;6.75;;;5.13;;
19113;SDS011;9689;51.052;13.772;2023-09-18T05:29:40;9.68;;;6.10;;
19113;SDS011;9689;51.052;13.772;2023-09-18T05:34:41;9.38;;;5.63;;
19113;SDS011;9689;51.052;13.772;2023-09-18T05:39:43;7.28;;;4.97;;
19113;SDS011;9689;51.052;13.772;2023-09-18T05:44:44;12.77;;;5.70;;
19113;SDS011;9689;51.052;13.772;2023-09-18T05:49:45;7.15;;;4.97;;
19113;SDS011;9689;51.052;13.772;2023-09-18T05:54:47;11.60;;;5.70;;
19113;SDS011;9689;51.052;13.772;2023-09-18T05:59:48;7.60;;;6.00;;
19113;SDS011;9689;51.052;13.772;2023-09-18T06:04:49;7.82;;;5.68;;
19113;SDS011;9689;51.052;13.772;2023-09-18T06:09:51;13.50;;;5.68;;
19113;SDS011;9689;51.052;13.772;2023-09-18T06:14:52;8.35;;;5.35;;
19113;SDS011;9689;51.052;13.772;2023-09-18T06:19:53;8.25;;;5.95;;
19113;SDS011;9689;51.052;13.772;2023-09-18T06:24:57;8.50;;;5.93;;
19113;SDS011;9689;51.052;13.772;2023-09-18T06:29:58;8.25;;;6.28;;
19113;SDS011;9689;51.052;13.772;2023-09-18T06:34:59;9.48;;;5.80;;
19113;SDS011;9689;51.052;13.772;2023-09-18T06:40:01;7.03;;;5.05;;
19113;SDS011;9689;51.052;13.772;2023-09-18T06:45:05;5.95;;;5.28;;
19113;SDS011;9689;51.052;13.772;2023-09-18T06:50:09;8.32;;;5.72;;
19113;SDS011;9689;51.052;13.772;2023-09-18T06:55:22;6.47;;;5.53;;
19113;SDS011;9689;51.052;13.772;2023-09-18T07:00:22;8.85;;;5.95;;
19113;SDS011;9689;51.052;13.772;2023-09-18T07:05:24;8.65;;;6.55;;
19113;SDS011;9689;51.052;13.772;2023-09-18T07:10:26;8.93;;;5.60;;
19113;SDS011;9689;51.052;13.772;2023-09-18T07:15:27;7.97;;;5.53;;
19113;SDS011;9689;51.052;13.772;2023-09-18T07:20:28;14.98;;;5.50;;
19113;SDS011;9689;51.052;13.772;2023-09-18T07:25:30;6.47;;;5.35;;
19113;SDS011;9689;51.052;13.772;2023-09-18T07:30:31;7.78;;;5.85;;
19113;SDS011;9689;51.052;13.772;2023-09-18T07:35:34;8.95;;;5.60;;
19113;SDS011;9689;51.052;13.772;2023-09-18T07:40:37;10.35;;;4.95;;
19113;SDS011;9689;51.052;13.772;2023-09-18T07:45:38;6.70;;;5.68;;
19113;SDS011;9689;51.052;13.772;2023-09-18T07:50:42;6.50;;;4.90;;
19113;SDS011;9689;51.052;13.772;2023-09-18T07:55:47;9.48;;;5.53;;
19113;SDS011;9689;51.052;13.772;2023-09-18T08:00:48;10.15;;;6.35;;
19113;SDS011;9689;51.052;13.772;2023-09-18T08:05:53;11.32;;;4.90;;
19113;SDS011;9689;51.052;13.772;2023-09-18T08:10:55;8.60;;;5.40;;
19113;SDS011;9689;51.052;13.772;2023-09-18T08:15:56;8.77;;;4.85;;
19113;SDS011;9689;51.052;13.772;2023-09-18T08:20:56;6.78;;;4.57;;
19113;SDS011;9689;51.052;13.772;2023-09-18T08:25:59;5.60;;;4.88;;
19113;SDS011;9689;51.052;13.772;2023-09-18T08:31:00;6.05;;;4.75;;
19113;SDS011;9689;51.052;13.772;2023-09-18T08:36:03;9.57;;;4.50;;
19113;SDS011;9689;51.052;13.772;2023-09-18T08:41:05;4.50;;;4.07;;
19113;SDS011;9689;51.052;13.772;2023-09-18T08:46:08;11.88;;;3.85;;
19113;SDS011;9689;51.052;13.772;2023-09-18T08:51:09;5.80;;;4.30;;
19113;SDS011;9689;51.052;13.772;2023-09-18T08:56:14;6.57;;;4.15;;
19113;SDS011;9689;51.052;13.772;2023-09-18T09:01:17;5.85;;;4.13;;
19113;SDS011;9689;51.052;13.772;2023-09-18T09:06:19;6.18;;;4.03;;
19113;SDS011;9689;51.052;13.772;2023-09-18T09:11:21;5.15;;;4.20;;
19113;SDS011;9689;51.052;13.772;2023-09-18T09:16:22;6.45;;;4.30;;
19113;SDS011;9689;51.052;13.772;2023-09-18T09:21:24;10.95;;;4.15;;
19113;SDS011;9689;51.052;13.772;2023-09-18T09:26:40;8.32;;;4.15;;
19113;SDS011;9689;51.052;13.772;2023-09-18T09:31:42;4.97;;;3.75;;
19113;SDS011;9689;51.052;13.772;2023-09-18T09:36:52;6.38;;;3.50;;
19113;SDS011;9689;51.052;13.772;2023-09-18T09:41:55;5.18;;;3.55;;
19113;SDS011;9689;51.052;13.772;2023-09-18T09:47:01;4.78;;;3.28;;
19113;SDS011;9689;51.052;13.772;2023-09-18T09:52:07;4.95;;;3.42;;
19113;SDS011;9689;51.052;13.772;2023-09-18T09:57:22;5.75;;;3.72;;
19113;SDS011;9689;51.052;13.772;2023-09-18T10:02:23;6.60;;;3.42;;
19113;SDS011;9689;51.052;13.772;2023-09-18T10:07:24;8.02;;;3.58;;
19113;SDS011;9689;51.052;13.772;2023-09-18T10:12:27;5.72;;;3.60;;
19113;SDS011;9689;51.052;13.772;2023-09-18T10:17:33;7.82;;;3.53;;
19113;SDS011;9689;51.052;13.772;2023-09-18T10:22:37;7.05;;;4.07;;
19113;SDS011;9689;51.052;13.772;2023-09-18T10:27:43;4.65;;;3.38;;
19113;SDS011;9689;51.052;13.772;2023-09-18T10:32:48;10.35;;;3.58;;
19113;SDS011;9689;51.052;13.772;2023-09-18T10:37:51;10.70;;;4.07;;
19113;SDS011;9689;51.052;13.772;2023-09-18T10:42:56;3.92;;;2.83;;
19113;SDS011;9689;51.052;13.772;2023-09-18T10:47:59;3.33;;;2.78;;
19113;SDS011;9689;51.052;13.772;2023-09-18T10:53:00;5.35;;;3.22;;
19113;SDS011;9689;51.052;13.772;2023-09-18T10:58:03;5.28;;;3.10;;
19113;SDS011;9689;51.052;13.772;2023-09-18T11:03:11;6.10;;;3.55;;
19113;SDS011;9689;51.052;13.772;2023-09-18T11:08:23;4.75;;;3.22;;
19113;SDS011;9689;51.052;13.772;2023-09-18T11:13:30;3.50;;;3.10;;
19113;SDS011;9689;51.052;13.772;2023-09-18T11:18:34;6.97;;;3.83;;
19113;SDS011;9689;51.052;13.772;2023-09-18T11:23:35;6.78;;;3.78;;
19113;SDS011;9689;51.052;13.772;2023-09-18T11:28:41;6.65;;;4.22;;
19113;SDS011;9689;51.052;13.772;2023-09-18T11:33:42;6.00;;;4.13;;
19113;SDS011;9689;51.052;13.772;2023-09-18T11:38:52;6.45;;;3.60;;
19113;SDS011;9689;51.052;13.772;2023-09-18T11:49:36;8.57;;;5.05;;
19113;SDS011;9689;51.052;13.772;2023-09-18T11:54:41;8.05;;;3.70;;
19113;SDS011;9689;51.052;13.772;2023-09-18T11:59:43;10.73;;;3.78;;
19113;SDS011;9689;51.052;13.772;2023-09-18T12:04:46;5.85;;;4.25;;
19113;SDS011;9689;51.052;13.772;2023-09-18T12:09:47;8.98;;;4.43;;
19113;SDS011;9689;51.052;13.772;2023-09-18T12:14:49;6.40;;;4.50;;
19113;SDS011;9689;51.052;13.772;2023-09-18T12:19:52;7.78;;;4.43;;
19113;SDS011;9689;51.052;13.772;2023-09-18T12:30:17;7.97;;;4.30;;
19113;SDS011;9689;51.052;13.772;2023-09-18T12:35:20;8.40;;;4.35;;
19113;SDS011;9689;51.052;13.772;2023-09-18T12:40:24;6.22;;;4.75;;
19113;SDS011;9689;51.052;13.772;2023-09-18T12:45:28;4.75;;;4.35;;
19113;SDS011;9689;51.052;13.772;2023-09-18T12:50:29;7.20;;;4.50;;
19113;SDS011;9689;51.052;13.772;2023-09-18T12:55:30;6.95;;;4.80;;
19113;SDS011;9689;51.052;13.772;2023-09-18T13:00:33;6.32;;;4.13;;
19113;SDS011;9689;51.052;13.772;2023-09-18T13:05:35;9.10;;;4.45;;
19113;SDS011;9689;51.052;13.772;2023-09-18T13:10:47;7.82;;;4.30;;
19113;SDS011;9689;51.052;13.772;2023-09-18T13:15:50;8.02;;;3.97;;
19113;SDS011;9689;51.052;13.772;2023-09-18T13:20:54;7.57;;;4.32;;
19113;SDS011;9689;51.052;13.772;2023-09-18T13:26:00;6.75;;;4.43;;
19113;SDS011;9689;51.052;13.772;2023-09-18T13:31:04;7.22;;;4.03;;
19113;SDS011;9689;51.052;13.772;2023-09-18T13:36:06;11.68;;;4.28;;
19113;SDS011;9689;51.052;13.772;2023-09-18T13:41:07;6.13;;;4.40;;
19113;SDS011;9689;51.052;13.772;2023-09-18T13:46:09;9.80;;;4.25;;
19113;SDS011;9689;51.052;13.772;2023-09-18T13:51:10;9.18;;;4.03;;
19113;SDS011;9689;51.052;13.772;2023-09-18T13:56:11;4.72;;;3.72;;
19113;SDS011;9689;51.052;13.772;2023-09-18T14:01:13;7.05;;;3.70;;
19113;SDS011;9689;51.052;13.772;2023-09-18T14:06:15;12.13;;;4.63;;
19113;SDS011;9689;51.052;13.772;2023-09-18T14:11:16;8.85;;;4.47;;
19113;SDS011;9689;51.052;13.772;2023-09-18T14:16:19;8.38;;;4.47;;
19113;SDS011;9689;51.052;13.772;2023-09-18T14:21:20;7.38;;;4.43;;
19113;SDS011;9689;51.052;13.772;2023-09-18T14:26:21;7.60;;;3.97;;
19113;SDS011;9689;51.052;13.772;2023-09-18T14:31:24;7.97;;;4.72;;
19113;SDS011;9689;51.052;13.772;2023-09-18T14:36:26;15.90;;;3.83;;
19113;SDS011;9689;51.052;13.772;2023-09-18T14:41:27;8.32;;;2.30;;
19113;SDS011;9689;51.052;13.772;2023-09-18T14:46:29;6.50;;;2.42;;
19113;SDS011;9689;51.052;13.772;2023-09-18T14:51:30;12.85;;;2.60;;
19113;SDS011;9689;51.052;13.772;2023-09-18T14:56:32;6.57;;;2.03;;
19113;SDS011;9689;51.052;13.772;2023-09-18T15:01:34;12.45;;;2.85;;
19113;SDS011;9689;51.052;13.772;2023-09-18T15:06:35;11.55;;;2.35;;
19113;SDS011;9689;51.052;13.772;2023-09-18T15:11:35;4.03;;;1.98;;
19113;SDS011;9689;51.052;13.772;2023-09-18T15:16:38;12.88;;;2.83;;
19113;SDS011;9689;51.052;13.772;2023-09-18T15:21:38;18.02;;;4.03;;
19113;SDS011;9689;51.052;13.772;2023-09-18T15:26:39;8.85;;;2.70;;
19113;SDS011;9689;51.052;13.772;2023-09-18T15:31:42;5.10;;;2.20;;
19113;SDS011;9689;51.052;13.772;2023-09-18T15:36:45;4.53;;;1.40;;
19113;SDS011;9689;51.052;13.772;2023-09-18T15:41:46;3.60;;;1.17;;
19113;SDS011;9689;51.052;13.772;2023-09-18T15:46:49;5.43;;;1.65;;
19113;SDS011;9689;51.052;13.772;2023-09-18T15:51:49;2.78;;;1.17;;
19113;SDS011;9689;51.052;13.772;2023-09-18T15:56:50;1.05;;;0.70;;
19113;SDS011;9689;51.052;13.772;2023-09-18T16:01:52;1.75;;;1.00;;
19113;SDS011;9689;51.052;13.772;2023-09-18T16:06:53;2.80;;;1.10;;
19113;SDS011;9689;51.052;13.772;2023-09-18T16:11:54;3.65;;;1.25;;
19113;SDS011;9689;51.052;13.772;2023-09-18T16:16:57;7.55;;;1.25;;
19113;SDS011;9689;51.052;13.772;2023-09-18T16:22:02;7.68;;;1.60;;
19113;SDS011;9689;51.052;13.772;2023-09-18T16:27:04;4.47;;;1.25;;
19113;SDS011;9689;51.052;13.772;2023-09-18T16:32:06;4.60;;;1.67;;
19113;SDS011;9689;51.052;13.772;2023-09-18T16:37:07;3.50;;;1.60;;
19113;SDS011;9689;51.052;13.772;2023-09-18T16:42:08;3.63;;;1.70;;
19113;SDS011;9689;51.052;13.772;2023-09-18T16:47:10;5.18;;;1.38;;
19113;SDS011;9689;51.052;13.772;2023-09-18T16:52:11;3.88;;;1.20;;
19113;SDS011;9689;51.052;13.772;2023-09-18T16:57:16;17.98;;;1.90;;
19113;SDS011;9689;51.052;13.772;2023-09-18T17:02:18;9.85;;;1.88;;
19113;SDS011;9689;51.052;13.772;2023-09-18T17:07:20;7.00;;;2.03;;
19113;SDS011;9689;51.052;13.772;2023-09-18T17:12:21;5.00;;;1.60;;
19113;SDS011;9689;51.052;13.772;2023-09-18T17:17:23;5.97;;;1.98;;
19113;SDS011;9689;51.052;13.772;2023-09-18T17:22:26;7.28;;;2.35;;
19113;SDS011;9689;51.052;13.772;2023-09-18T17:27:27;7.80;;;2.33;;
19113;SDS011;9689;51.052;13.772;2023-09-18T17:32:30;8.50;;;2.25;;
19113;SDS011;9689;51.052;13.772;2023-09-18T17:37:30;10.68;;;2.35;;
19113;SDS011;9689;51.052;13.772;2023-09-18T17:42:31;5.75;;;2.05;;
19113;SDS011;9689;51.052;13.772;2023-09-18T17:47:34;5.68;;;2.45;;
19113;SDS011;9689;51.052;13.772;2023-09-18T17:52:35;9.90;;;2.63;;
19113;SDS011;9689;51.052;13.772;2023-09-18T17:57:36;10.65;;;2.65;;
19113;SDS011;9689;51.052;13.772;2023-09-18T18:02:39;10.30;;;2.60;;
19113;SDS011;9689;51.052;13.772;2023-09-18T18:07:40;12.48;;;2.22;;
19113;SDS011;9689;51.052;13.772;2023-09-18T18:12:41;9.00;;;2.70;;
19113;SDS011;9689;51.052;13.772;2023-09-18T18:17:43;7.53;;;2.58;;
19113;SDS011;9689;51.052;13.772;2023-09-18T18:22:44;5.60;;;2.20;;
19113;SDS011;9689;51.052;13.772;2023-09-18T18:27:47;10.80;;;2.60;;
19113;SDS011;9689;51.052;13.772;2023-09-18T18:32:49;6.78;;;2.25;;
19113;SDS011;9689;51.052;13.772;2023-09-18T18:37:51;9.02;;;2.92;;
19113;SDS011;9689;51.052;13.772;2023-09-18T18:42:54;7.47;;;2.28;;
19113;SDS011;9689;51.052;13.772;2023-09-18T18:47:56;12.57;;;5.63;;
19113;SDS011;9689;51.052;13.772;2023-09-18T18:53:00;8.27;;;2.78;;
19113;SDS011;9689;51.052;13.772;2023-09-18T18:58:02;6.22;;;2.50;;
19113;SDS011;9689;51.052;13.772;2023-09-18T19:03:07;10.13;;;3.20;;
19113;SDS011;9689;51.052;13.772;2023-09-18T19:08:09;9.80;;;2.17;;
19113;SDS011;9689;51.052;13.772;2023-09-18T19:13:10;4.00;;;1.90;;
19113;SDS011;9689;51.052;13.772;2023-09-18T19:18:13;8.52;;;2.70;;
19113;SDS011;9689;51.052;13.772;2023-09-18T19:23:15;9.43;;;2.25;;
19113;SDS011;9689;51.052;13.772;2023-09-18T19:28:19;11.43;;;2.33;;
19113;SDS011;9689;51.052;13.772;2023-09-18T19:33:22;7.13;;;2.40;;
19113;SDS011;9689;51.052;13.772;2023-09-18T19:38:24;5.10;;;1.88;;
19113;SDS011;9689;51.052;13.772;2023-09-18T19:43:25;4.65;;;2.50;;
19113;SDS011;9689;51.052;13.772;2023-09-18T19:48:27;6.88;;;2.40;;
19113;SDS011;9689;51.052;13.772;2023-09-18T19:53:28;7.25;;;3.10;;
19113;SDS011;9689;51.052;13.772;2023-09-18T19:58:29;7.60;;;2.35;;
19113;SDS011;9689;51.052;13.772;2023-09-18T20:03:33;6.80;;;2.55;;
19113;SDS011;9689;51.052;13.772;2023-09-18T20:08:35;4.45;;;2.20;;
19113;SDS011;9689;51.052;13.772;2023-09-18T20:13:36;5.05;;;2.10;;
19113;SDS011;9689;51.052;13.772;2023-09-18T20:18:39;5.18;;;2.42;;
19113;SDS011;9689;51.052;13.772;2023-09-18T20:23:41;10.10;;;2.60;;
19113;SDS011;9689;51.052;13.772;2023-09-18T20:28:42;5.78;;;2.13;;
19113;SDS011;9689;51.052;13.772;2023-09-18T20:33:44;4.68;;;2.15;;
19113;SDS011;9689;51.052;13.772;2023-09-18T20:38:45;4.65;;;2.38;;
19113;SDS011;9689;51.052;13.772;2023-09-18T20:43:46;6.22;;;2.10;;
19113;SDS011;9689;51.052;13.772;2023-09-18T20:48:48;3.83;;;2.08;;
19113;SDS011;9689;51.052;13.772;2023-09-18T20:53:49;8.02;;;1.98;;
19113;SDS011;9689;51.052;13.772;2023-09-18T20:58:53;5.95;;;1.90;;
19113;SDS011;9689;51.052;13.772;2023-09-18T21:03:56;6.95;;;1.63;;
19113;SDS011;9689;51.052;13.772;2023-09-18T21:08:57;3.65;;;1.73;;
19113;SDS011;9689;51.052;13.772;2023-09-18T21:13:58;5.20;;;1.55;;
19113;SDS011;9689;51.052;13.772;2023-09-18T21:19:00;3.17;;;1.48;;
19113;SDS011;9689;51.052;13.772;2023-09-18T21:24:02;4.00;;;1.60;;
19113;SDS011;9689;51.052;13.772;2023-09-18T21:29:03;5.22;;;1.40;;
19113;SDS011;9689;51.052;13.772;2023-09-18T21:34:05;2.72;;;1.08;;
19113;SDS011;9689;51.052;13.772;2023-09-18T21:39:07;2.63;;;1.30;;
19113;SDS011;9689;51.052;13.772;2023-09-18T21:44:08;7.13;;;1.70;;
19113;SDS011;9689;51.052;13.772;2023-09-18T21:49:11;7.05;;;1.55;;
19113;SDS011;9689;51.052;13.772;2023-09-18T21:54:14;5.15;;;1.40;;
19113;SDS011;9689;51.052;13.772;2023-09-18T21:59:15;3.33;;;1.50;;
19113;SDS011;9689;51.052;13.772;2023-09-18T22:04:17;2.15;;;1.10;;
19113;SDS011;9689;51.052;13.772;2023-09-18T22:09:23;5.28;;;1.35;;
19113;SDS011;9689;51.052;13.772;2023-09-18T22:14:27;3.75;;;1.27;;
19113;SDS011;9689;51.052;13.772;2023-09-18T22:19:29;4.05;;;1.20;;
19113;SDS011;9689;51.052;13.772;2023-09-18T22:24:30;5.57;;;1.40;;
19113;SDS011;9689;51.052;13.772;2023-09-18T22:29:31;5.28;;;1.60;;
19113;SDS011;9689;51.052;13.772;2023-09-18T22:34:33;2.60;;;1.48;;
19113;SDS011;9689;51.052;13.772;2023-09-18T22:56:17;6.18;;;2.75;;
19113;SDS011;9689;51.052;13.772;2023-09-18T23:01:18;10.38;;;2.80;;
19113;SDS011;9689;51.052;13.772;2023-09-18T23:06:19;5.80;;;3.25;;
19113;SDS011;9689;51.052;13.772;2023-09-18T23:11:24;6.30;;;3.83;;
19113;SDS011;9689;51.052;13.772;2023-09-18T23:16:26;7.25;;;4.47;;
19113;SDS011;9689;51.052;13.772;2023-09-18T23:21:28;9.48;;;5.13;;
19113;SDS011;9689;51.052;13.772;2023-09-18T23:26:32;8.57;;;5.65;;
19113;SDS011;9689;51.052;13.772;2023-09-18T23:31:35;9.20;;;5.65;;
19113;SDS011;9689;51.052;13.772;2023-09-18T23:36:38;10.45;;;5.13;;
19113;SDS011;9689;51.052;13.772;2023-09-18T23:41:40;11.32;;;5.85;;
19113;SDS011;9689;51.052;13.772;2023-09-18T23:46:52;15.38;;;6.22;;
19113;SDS011;9689;51.052;13.772;2023-09-18T23:51:58;10.27;;;5.85;;
19113;SDS011;9689;51.052;13.772;2023-09-18T23:57:04;9.98;;;5.60;;
